createdAt,value
2019-05-15T00:00:18.688Z,0.00
2019-05-15T00:01:19.259Z,0.00
2019-05-15T00:02:18.674Z,0.00
2019-05-15T00:03:19.697Z,0.00
2019-05-15T00:04:18.794Z,0.00
2019-05-15T00:05:18.935Z,0.00
2019-05-15T00:06:19.175Z,0.00
2019-05-15T00:07:18.652Z,0.00
2019-05-15T00:08:18.635Z,0.00
2019-05-15T00:09:19.247Z,0.00
2019-05-15T00:10:18.597Z,0.00
2019-05-15T00:11:19.282Z,0.00
2019-05-15T00:12:19.010Z,0.00
2019-05-15T00:13:18.633Z,0.00
2019-05-15T00:14:18.574Z,0.00
2019-05-15T00:15:18.559Z,0.00
2019-05-15T00:16:18.553Z,0.00
2019-05-15T00:17:19.232Z,0.00
2019-05-15T00:18:18.692Z,0.00
2019-05-15T00:19:18.890Z,0.00
2019-05-15T00:20:20.219Z,0.00
2019-05-15T00:21:18.504Z,0.00
2019-05-15T00:22:18.556Z,0.00
2019-05-15T00:23:18.488Z,0.00
2019-05-15T00:24:18.475Z,0.00
2019-05-15T00:25:18.932Z,0.00
2019-05-15T00:26:33.386Z,0.00
2019-05-15T00:27:20.182Z,0.00
2019-05-15T00:28:18.680Z,0.00
2019-05-15T00:29:19.724Z,0.00
2019-05-15T00:30:18.531Z,0.00
2019-05-15T00:31:18.718Z,0.00
2019-05-15T00:32:18.674Z,0.00
2019-05-15T00:33:19.310Z,0.00
2019-05-15T00:34:18.459Z,0.00
2019-05-15T00:35:18.592Z,0.00
2019-05-15T00:36:19.194Z,0.00
2019-05-15T00:37:18.408Z,0.00
2019-05-15T00:38:18.778Z,0.00
2019-05-15T00:39:18.969Z,0.00
2019-05-15T00:40:18.560Z,0.00
2019-05-15T00:41:18.571Z,0.00
2019-05-15T00:42:18.993Z,0.00
2019-05-15T00:43:18.475Z,0.00
2019-05-15T00:44:18.746Z,0.00
2019-05-15T00:45:18.610Z,0.00
2019-05-15T00:46:18.449Z,0.00
2019-05-15T00:47:18.274Z,0.00
2019-05-15T00:48:18.470Z,0.00
2019-05-15T00:49:18.896Z,0.00
2019-05-15T00:50:18.416Z,0.00
2019-05-15T00:51:19.583Z,0.00
2019-05-15T00:52:18.229Z,0.00
2019-05-15T00:53:19.627Z,0.00
2019-05-15T00:54:19.204Z,0.00
2019-05-15T00:55:19.036Z,0.00
2019-05-15T00:56:19.483Z,0.00
2019-05-15T00:57:19.241Z,0.00
2019-05-15T00:58:20.025Z,0.00
2019-05-15T00:59:26.341Z,0.00
2019-05-15T01:00:18.646Z,0.00
2019-05-15T01:01:19.251Z,0.00
2019-05-15T01:02:18.142Z,0.00
2019-05-15T01:03:18.351Z,0.00
2019-05-15T01:04:18.760Z,0.00
2019-05-15T01:05:18.599Z,0.00
2019-05-15T01:06:19.071Z,0.00
2019-05-15T01:07:18.803Z,0.00
2019-05-15T01:08:19.142Z,0.00
2019-05-15T01:09:18.700Z,0.00
2019-05-15T01:10:19.403Z,0.00
2019-05-15T01:11:19.204Z,0.00
2019-05-15T01:12:18.435Z,0.00
2019-05-15T01:13:18.994Z,0.00
2019-05-15T01:14:18.599Z,0.00
2019-05-15T01:15:18.447Z,0.00
2019-05-15T01:16:18.666Z,0.00
2019-05-15T01:17:18.467Z,0.00
2019-05-15T01:18:18.710Z,0.00
2019-05-15T01:19:18.494Z,0.00
2019-05-15T01:20:18.918Z,0.00
2019-05-15T01:21:18.788Z,0.00
2019-05-15T01:22:19.536Z,0.00
2019-05-15T01:23:18.731Z,0.00
2019-05-15T01:24:18.911Z,0.00
2019-05-15T01:25:18.585Z,0.00
2019-05-15T01:26:18.878Z,0.00
2019-05-15T01:27:18.455Z,0.00
2019-05-15T01:28:18.328Z,0.00
2019-05-15T01:29:18.347Z,0.00
2019-05-15T01:30:18.023Z,0.00
2019-05-15T01:31:19.060Z,0.00
2019-05-15T01:32:19.088Z,0.00
2019-05-15T01:33:19.024Z,0.00
2019-05-15T01:34:18.446Z,0.00
2019-05-15T01:35:18.109Z,0.00
2019-05-15T01:36:19.274Z,0.00
2019-05-15T01:37:18.895Z,0.00
2019-05-15T01:38:18.690Z,0.00
2019-05-15T01:39:18.492Z,0.00
2019-05-15T01:40:18.294Z,0.00
2019-05-15T01:41:18.889Z,0.00
2019-05-15T01:42:18.590Z,0.00
2019-05-15T01:43:18.697Z,0.00
2019-05-15T01:44:18.004Z,0.00
2019-05-15T01:45:18.934Z,0.00
2019-05-15T01:46:19.059Z,0.00
2019-05-15T01:47:19.010Z,0.00
2019-05-15T01:48:18.992Z,0.00
2019-05-15T01:49:18.714Z,0.00
2019-05-15T01:50:18.560Z,0.00
2019-05-15T01:51:18.501Z,0.00
2019-05-15T01:52:18.786Z,0.00
2019-05-15T01:53:18.732Z,0.00
2019-05-15T01:54:18.655Z,0.00
2019-05-15T01:55:18.211Z,0.00
2019-05-15T01:56:18.771Z,0.00
2019-05-15T01:57:18.206Z,0.00
2019-05-15T01:58:18.668Z,0.00
2019-05-15T01:59:18.925Z,0.00
2019-05-15T02:00:18.869Z,0.00
2019-05-15T02:01:19.209Z,0.00
2019-05-15T02:02:18.708Z,0.00
2019-05-15T02:03:18.367Z,0.00
2019-05-15T02:04:19.728Z,0.00
2019-05-15T02:05:18.758Z,0.00
2019-05-15T02:06:18.953Z,0.00
2019-05-15T02:07:18.665Z,0.00
2019-05-15T02:08:19.104Z,0.00
2019-05-15T02:09:18.550Z,0.00
2019-05-15T02:10:18.624Z,0.00
2019-05-15T02:11:18.094Z,0.00
2019-05-15T02:12:19.153Z,0.00
2019-05-15T02:13:18.683Z,0.00
2019-05-15T02:14:18.983Z,0.00
2019-05-15T02:15:19.021Z,0.00
2019-05-15T02:16:19.180Z,0.00
2019-05-15T02:17:18.939Z,0.00
2019-05-15T02:18:19.143Z,0.00
2019-05-15T02:19:19.363Z,0.00
2019-05-15T02:20:18.747Z,0.00
2019-05-15T02:21:18.321Z,0.00
2019-05-15T02:22:18.895Z,0.00
2019-05-15T02:23:18.869Z,0.00
2019-05-15T02:24:18.933Z,0.00
2019-05-15T02:25:18.552Z,0.00
2019-05-15T02:26:18.883Z,0.00
2019-05-15T02:27:18.597Z,0.00
2019-05-15T02:28:18.403Z,0.00
2019-05-15T02:29:24.733Z,0.00
2019-05-15T02:30:27.822Z,0.00
2019-05-15T02:31:19.577Z,0.00
2019-05-15T02:32:19.294Z,0.00
2019-05-15T02:33:18.946Z,0.00
2019-05-15T02:34:19.455Z,0.00
2019-05-15T02:35:18.491Z,0.00
2019-05-15T02:36:20.383Z,0.00
2019-05-15T02:37:19.241Z,0.00
2019-05-15T02:38:19.950Z,0.00
2019-05-15T02:39:18.929Z,0.00
2019-05-15T02:40:19.097Z,0.00
2019-05-15T02:41:19.574Z,0.00
2019-05-15T02:42:19.219Z,0.00
2019-05-15T02:43:18.986Z,0.00
2019-05-15T02:44:19.963Z,0.00
2019-05-15T02:45:19.568Z,0.00
2019-05-15T02:46:19.473Z,0.00
2019-05-15T02:47:19.901Z,0.00
2019-05-15T02:48:19.934Z,0.00
2019-05-15T02:49:19.192Z,0.00
2019-05-15T02:50:20.196Z,0.00
2019-05-15T02:51:19.315Z,0.00
2019-05-15T02:52:19.890Z,0.00
2019-05-15T02:53:18.979Z,0.00
2019-05-15T02:54:19.666Z,0.00
2019-05-15T02:55:19.557Z,0.00
2019-05-15T02:56:20.039Z,0.00
2019-05-15T02:57:19.207Z,0.00
2019-05-15T02:58:21.195Z,0.00
2019-05-15T02:59:19.458Z,0.00
2019-05-15T03:00:35.322Z,0.00
2019-05-15T03:01:18.937Z,0.00
2019-05-15T03:02:19.111Z,0.00
2019-05-15T03:03:17.014Z,0.00
2019-05-15T03:04:20.015Z,0.00
2019-05-15T03:05:19.527Z,0.00
2019-05-15T03:06:19.208Z,0.00
2019-05-15T03:07:19.315Z,0.00
2019-05-15T03:08:19.575Z,0.00
2019-05-15T03:09:18.821Z,0.00
2019-05-15T03:10:19.900Z,0.00
2019-05-15T03:11:18.981Z,0.00
2019-05-15T03:12:19.569Z,0.00
2019-05-15T03:13:18.900Z,0.00
2019-05-15T03:14:16.899Z,0.00
2019-05-15T03:15:19.482Z,0.00
2019-05-15T03:16:19.326Z,0.00
2019-05-15T03:17:19.054Z,0.00
2019-05-15T03:18:19.381Z,0.00
2019-05-15T03:19:19.340Z,0.00
2019-05-15T03:20:18.635Z,0.00
2019-05-15T03:21:18.810Z,0.00
2019-05-15T03:22:19.350Z,0.00
2019-05-15T03:23:19.847Z,5.63
2019-05-15T03:24:19.425Z,5.63
2019-05-15T03:25:19.186Z,5.63
2019-05-15T03:26:19.746Z,5.63
2019-05-15T03:27:19.510Z,5.63
2019-05-15T03:28:19.090Z,5.63
2019-05-15T03:29:16.767Z,11.25
2019-05-15T03:30:21.430Z,11.25
2019-05-15T03:31:35.058Z,11.25
2019-05-15T03:32:27.739Z,11.25
2019-05-15T03:33:25.687Z,11.25
2019-05-15T03:34:23.429Z,16.88
2019-05-15T03:35:22.008Z,16.88
2019-05-15T03:36:22.232Z,16.88
2019-05-15T03:37:21.838Z,16.88
2019-05-15T03:38:19.284Z,22.50
2019-05-15T03:39:19.018Z,22.50
2019-05-15T03:40:19.427Z,22.50
2019-05-15T03:41:19.534Z,28.13
2019-05-15T03:42:19.056Z,28.13
2019-05-15T03:43:18.570Z,28.13
2019-05-15T03:44:19.533Z,33.75
2019-05-15T03:45:19.188Z,33.75
2019-05-15T03:46:19.695Z,33.75
2019-05-15T03:47:19.212Z,39.38
2019-05-15T03:48:19.434Z,39.38
2019-05-15T03:49:19.703Z,45.00
2019-05-15T03:50:19.267Z,45.00
2019-05-15T03:51:19.642Z,50.63
2019-05-15T03:52:19.088Z,50.63
2019-05-15T03:53:19.319Z,50.63
2019-05-15T03:54:18.951Z,56.25
2019-05-15T03:55:18.681Z,56.25
2019-05-15T03:56:19.048Z,61.88
2019-05-15T03:57:20.067Z,61.88
2019-05-15T03:58:20.926Z,67.50
2019-05-15T03:59:19.116Z,67.50
2019-05-15T04:00:19.339Z,73.13
2019-05-15T04:01:30.246Z,73.13
2019-05-15T04:02:19.242Z,78.75
2019-05-15T04:03:19.499Z,78.75
2019-05-15T04:04:18.935Z,84.38
2019-05-15T04:05:19.653Z,84.38
2019-05-15T04:06:19.181Z,90.00
2019-05-15T04:07:18.855Z,90.00
2019-05-15T04:08:19.184Z,95.63
2019-05-15T04:09:18.940Z,95.63
2019-05-15T04:10:19.751Z,101.25
2019-05-15T04:11:16.356Z,101.25
2019-05-15T04:12:19.430Z,101.25
2019-05-15T04:13:19.286Z,106.88
2019-05-15T04:14:19.260Z,106.88
2019-05-15T04:15:18.787Z,112.50
2019-05-15T04:16:19.091Z,112.50
2019-05-15T04:17:19.533Z,118.13
2019-05-15T04:18:19.664Z,118.13
2019-05-15T04:19:18.873Z,123.75
2019-05-15T04:20:19.762Z,123.75
2019-05-15T04:21:19.676Z,129.38
2019-05-15T04:22:19.487Z,129.38
2019-05-15T04:23:18.908Z,129.38
2019-05-15T04:24:18.834Z,135.00
2019-05-15T04:25:19.033Z,140.63
2019-05-15T04:26:19.254Z,140.63
2019-05-15T04:27:19.550Z,140.63
2019-05-15T04:28:19.126Z,146.25
2019-05-15T04:29:19.134Z,146.25
2019-05-15T04:30:18.902Z,146.25
2019-05-15T04:31:19.179Z,146.25
2019-05-15T04:32:19.764Z,151.88
2019-05-15T04:33:16.144Z,151.88
2019-05-15T04:34:19.265Z,157.50
2019-05-15T04:35:19.575Z,157.50
2019-05-15T04:36:18.918Z,163.13
2019-05-15T04:37:18.756Z,163.13
2019-05-15T04:38:16.107Z,168.75
2019-05-15T04:39:19.067Z,168.75
2019-05-15T04:40:19.164Z,174.38
2019-05-15T04:41:19.469Z,174.38
2019-05-15T04:42:16.056Z,180.00
2019-05-15T04:43:19.196Z,180.00
2019-05-15T04:44:19.116Z,180.00
2019-05-15T04:45:19.183Z,185.63
2019-05-15T04:46:19.240Z,191.25
2019-05-15T04:47:18.974Z,191.25
2019-05-15T04:48:16.000Z,196.88
2019-05-15T04:49:19.058Z,202.50
2019-05-15T04:50:19.114Z,264.38
2019-05-15T04:51:18.881Z,545.63
2019-05-15T04:52:19.346Z,736.88
2019-05-15T04:53:19.062Z,832.50
2019-05-15T04:54:15.944Z,905.63
2019-05-15T04:55:15.938Z,911.25
2019-05-15T04:56:15.925Z,905.63
2019-05-15T04:57:15.918Z,950.63
2019-05-15T04:58:20.297Z,978.75
2019-05-15T04:59:19.264Z,1006.88
2019-05-15T05:00:15.888Z,1035.00
2019-05-15T05:01:19.704Z,1074.38
2019-05-15T05:02:19.294Z,1125.00
2019-05-15T05:03:19.352Z,1108.13
2019-05-15T05:04:18.703Z,1181.25
2019-05-15T05:05:18.802Z,1321.88
2019-05-15T05:06:18.805Z,1361.25
2019-05-15T05:07:18.711Z,1355.63
2019-05-15T05:08:15.816Z,1383.75
2019-05-15T05:09:15.807Z,1395.00
2019-05-15T05:10:15.797Z,1372.50
2019-05-15T05:11:15.792Z,1350.00
2019-05-15T05:12:15.781Z,1361.25
2019-05-15T05:13:15.772Z,1462.50
2019-05-15T05:14:15.763Z,1631.25
2019-05-15T05:15:15.754Z,1738.13
2019-05-15T05:16:18.868Z,1828.13
2019-05-15T05:17:15.760Z,1805.63
2019-05-15T05:18:18.655Z,1721.25
2019-05-15T05:19:15.739Z,1738.13
2019-05-15T05:20:17.849Z,1777.50
2019-05-15T05:21:15.708Z,1805.63
2019-05-15T05:22:15.700Z,1839.38
2019-05-15T05:23:15.690Z,1940.63
2019-05-15T05:24:15.684Z,2081.25
2019-05-15T05:25:15.683Z,2092.50
2019-05-15T05:26:18.338Z,2131.88
2019-05-15T05:27:18.103Z,2075.63
2019-05-15T05:28:23.377Z,2036.25
2019-05-15T05:30:24.118Z,2030.63
2019-05-15T05:31:09.124Z,2199.38
2019-05-15T05:32:09.323Z,2317.50
2019-05-15T05:33:09.056Z,2424.38
2019-05-15T05:34:09.047Z,2441.25
2019-05-15T05:35:09.040Z,2300.63
2019-05-15T05:36:09.034Z,2351.25
2019-05-15T05:37:09.037Z,2508.75
2019-05-15T05:38:09.018Z,2441.25
2019-05-15T05:39:11.419Z,2351.25
2019-05-15T05:40:09.102Z,2452.50
2019-05-15T05:41:09.003Z,2531.25
2019-05-15T05:42:09.002Z,2514.38
2019-05-15T05:43:09.553Z,2553.75
2019-05-15T05:44:08.984Z,2536.88
2019-05-15T05:45:09.484Z,2553.75
2019-05-15T05:46:09.425Z,2317.50
2019-05-15T05:47:09.348Z,2446.88
2019-05-15T05:48:09.010Z,2548.13
2019-05-15T05:49:08.959Z,2660.63
2019-05-15T05:50:08.976Z,2638.13
2019-05-15T05:51:09.443Z,2576.25
2019-05-15T05:52:08.941Z,2711.25
2019-05-15T05:53:08.969Z,2756.25
2019-05-15T05:54:08.925Z,2716.88
2019-05-15T05:55:09.133Z,2790.00
2019-05-15T05:56:09.169Z,2851.88
2019-05-15T05:57:09.214Z,2767.50
2019-05-15T05:58:08.914Z,2829.38
2019-05-15T05:59:09.554Z,2947.50
2019-05-15T06:00:09.543Z,2896.88
2019-05-15T06:01:09.491Z,2778.75
2019-05-15T06:02:08.884Z,2683.13
2019-05-15T06:03:08.947Z,1929.38
2019-05-15T06:04:08.886Z,1276.88
2019-05-15T06:05:08.871Z,1198.13
2019-05-15T06:06:09.850Z,1158.75
2019-05-15T06:07:13.266Z,1147.50
2019-05-15T06:08:08.863Z,1136.25
2019-05-15T06:09:09.381Z,1136.25
2019-05-15T06:10:09.161Z,1136.25
2019-05-15T06:11:09.739Z,1147.50
2019-05-15T06:12:08.845Z,1175.63
2019-05-15T06:13:08.947Z,1226.25
2019-05-15T06:14:08.914Z,1310.63
2019-05-15T06:15:09.224Z,1569.38
2019-05-15T06:16:08.829Z,2503.13
2019-05-15T06:17:08.827Z,1068.75
2019-05-15T06:18:08.832Z,736.88
2019-05-15T06:19:08.823Z,506.25
2019-05-15T06:20:08.820Z,585.00
2019-05-15T06:21:09.234Z,433.13
2019-05-15T06:22:08.928Z,433.13
2019-05-15T06:23:08.801Z,742.50
2019-05-15T06:24:13.072Z,1929.38
2019-05-15T06:25:11.244Z,2435.63
2019-05-15T06:26:09.540Z,1710.00
2019-05-15T06:27:08.784Z,1558.13
2019-05-15T06:28:09.195Z,2463.75
2019-05-15T06:29:08.987Z,3661.88
2019-05-15T06:30:11.004Z,3622.50
2019-05-15T06:31:09.001Z,3493.13
2019-05-15T06:32:08.765Z,3526.88
2019-05-15T06:33:13.287Z,3521.25
2019-05-15T06:34:08.755Z,3301.88
2019-05-15T06:35:08.887Z,4005.00
2019-05-15T06:36:09.210Z,4173.75
2019-05-15T06:37:08.742Z,3813.75
2019-05-15T06:38:08.734Z,3982.50
2019-05-15T06:39:08.724Z,4106.25
2019-05-15T06:40:09.567Z,4263.75
2019-05-15T06:41:08.953Z,4393.13
2019-05-15T06:42:08.916Z,3937.50
2019-05-15T06:43:08.903Z,1800.00
2019-05-15T06:44:08.709Z,2857.50
2019-05-15T06:45:08.713Z,3751.88
2019-05-15T06:46:09.363Z,3729.38
2019-05-15T06:47:08.697Z,2986.88
2019-05-15T06:48:09.415Z,4410.00
2019-05-15T06:49:08.692Z,4550.63
2019-05-15T06:50:08.801Z,4640.63
2019-05-15T06:51:09.067Z,4443.75
2019-05-15T06:52:08.929Z,4460.63
2019-05-15T06:53:10.852Z,4736.25
2019-05-15T06:54:08.881Z,4764.38
2019-05-15T06:55:09.253Z,4708.13
2019-05-15T06:56:08.672Z,4848.75
2019-05-15T06:57:09.201Z,4876.88
2019-05-15T06:58:09.237Z,5085.00
2019-05-15T06:59:08.919Z,5040.00
2019-05-15T07:00:08.668Z,4820.63
2019-05-15T07:01:08.993Z,4995.00
2019-05-15T07:02:08.645Z,4916.25
2019-05-15T07:03:18.103Z,4725.00
2019-05-15T07:04:08.638Z,4826.25
2019-05-15T07:05:08.646Z,4713.75
2019-05-15T07:06:09.446Z,4629.38
2019-05-15T07:07:11.160Z,4983.75
2019-05-15T07:08:09.154Z,5557.50
2019-05-15T07:09:09.500Z,5596.88
2019-05-15T07:10:09.261Z,5377.50
2019-05-15T07:11:09.005Z,5512.50
2019-05-15T07:12:08.620Z,5906.25
2019-05-15T07:13:08.917Z,5793.75
2019-05-15T07:14:09.003Z,5490.00
2019-05-15T07:15:09.209Z,5501.25
2019-05-15T07:16:08.615Z,5821.88
2019-05-15T07:17:09.304Z,5945.63
2019-05-15T07:18:08.845Z,5748.75
2019-05-15T07:19:08.614Z,5709.38
2019-05-15T07:20:08.790Z,5771.25
2019-05-15T07:21:10.345Z,5979.38
2019-05-15T07:22:09.382Z,6035.63
2019-05-15T07:23:08.966Z,5670.00
2019-05-15T07:24:09.210Z,5574.38
2019-05-15T07:25:08.993Z,5776.88
2019-05-15T07:26:09.439Z,5923.13
2019-05-15T07:27:08.601Z,5810.63
2019-05-15T07:28:08.904Z,5917.50
2019-05-15T07:29:08.605Z,6001.88
2019-05-15T07:30:11.713Z,5765.63
2019-05-15T07:31:11.636Z,5748.75
2019-05-15T07:32:08.593Z,5720.63
2019-05-15T07:33:08.838Z,5574.38
2019-05-15T07:34:08.593Z,5844.38
2019-05-15T07:35:08.593Z,6103.13
2019-05-15T07:36:08.610Z,6142.50
2019-05-15T07:37:09.669Z,6153.75
2019-05-15T07:38:08.588Z,6170.63
2019-05-15T07:39:08.593Z,6238.13
2019-05-15T07:40:08.591Z,6592.50
2019-05-15T07:41:10.234Z,6423.75
2019-05-15T07:42:08.745Z,6091.88
2019-05-15T07:43:09.381Z,6226.88
2019-05-15T07:44:08.580Z,6384.38
2019-05-15T07:45:08.583Z,6193.13
2019-05-15T07:46:08.683Z,6210.00
2019-05-15T07:47:08.964Z,6491.25
2019-05-15T07:48:09.216Z,6558.75
2019-05-15T07:49:09.038Z,6598.13
2019-05-15T07:50:09.079Z,6316.88
2019-05-15T07:51:11.399Z,6288.75
2019-05-15T07:52:08.789Z,6418.13
2019-05-15T07:53:08.866Z,6305.63
2019-05-15T07:54:09.345Z,6114.38
2019-05-15T07:55:08.806Z,6210.00
2019-05-15T07:56:11.873Z,6271.88
2019-05-15T07:57:09.050Z,5945.63
2019-05-15T07:58:08.711Z,5771.25
2019-05-15T07:59:08.587Z,5850.00
2019-05-15T08:00:08.581Z,5900.63
2019-05-15T08:01:10.061Z,6046.88
2019-05-15T08:02:08.600Z,6367.50
2019-05-15T08:03:10.360Z,6316.88
2019-05-15T08:04:24.806Z,6086.25
2019-05-15T08:05:08.592Z,6148.13
2019-05-15T08:06:08.948Z,6108.75
2019-05-15T08:07:09.161Z,6103.13
2019-05-15T08:08:09.188Z,6181.88
2019-05-15T08:09:08.871Z,6193.13
2019-05-15T08:10:08.856Z,6018.75
2019-05-15T08:11:19.750Z,5709.38
2019-05-15T08:12:08.593Z,5776.88
2019-05-15T08:13:08.951Z,5945.63
2019-05-15T08:14:09.069Z,5985.00
2019-05-15T08:15:08.953Z,6305.63
2019-05-15T08:16:08.767Z,6575.63
2019-05-15T08:17:08.809Z,6626.25
2019-05-15T08:18:12.015Z,6586.88
2019-05-15T08:19:08.687Z,6716.25
2019-05-15T08:20:09.123Z,7014.38
2019-05-15T08:21:09.118Z,6766.88
2019-05-15T08:22:08.978Z,6328.13
2019-05-15T08:23:08.638Z,6120.00
2019-05-15T08:24:08.723Z,5973.75
2019-05-15T08:25:12.947Z,5979.38
2019-05-15T08:26:08.919Z,6125.63
2019-05-15T08:27:08.614Z,6226.88
2019-05-15T08:28:09.010Z,6238.13
2019-05-15T08:29:08.617Z,6575.63
2019-05-15T08:30:09.038Z,6795.00
2019-05-15T08:31:10.160Z,6716.25
2019-05-15T08:32:08.648Z,6946.88
2019-05-15T08:33:08.656Z,6879.38
2019-05-15T08:34:13.616Z,6255.00
2019-05-15T08:35:08.627Z,3993.75
2019-05-15T08:36:08.703Z,2846.25
2019-05-15T08:37:08.632Z,2700.00
2019-05-15T08:38:08.932Z,2728.13
2019-05-15T08:39:08.638Z,2851.88
2019-05-15T08:40:08.794Z,4944.38
2019-05-15T08:41:11.542Z,3127.50
2019-05-15T08:42:08.646Z,4831.88
2019-05-15T08:43:11.435Z,5956.88
2019-05-15T08:44:08.863Z,6075.00
2019-05-15T08:45:09.228Z,6406.88
2019-05-15T08:46:08.653Z,6738.75
2019-05-15T08:47:08.652Z,6165.00
2019-05-15T08:48:09.310Z,6322.50
2019-05-15T08:49:09.232Z,6238.13
2019-05-15T08:50:08.955Z,6120.00
2019-05-15T08:51:08.931Z,6125.63
2019-05-15T08:52:10.106Z,6215.63
2019-05-15T08:53:08.668Z,6496.88
2019-05-15T08:54:08.730Z,6541.88
2019-05-15T08:55:08.834Z,6013.13
2019-05-15T08:56:08.745Z,5433.75
2019-05-15T08:57:08.686Z,5428.13
2019-05-15T08:58:13.679Z,5709.38
2019-05-15T08:59:08.923Z,6024.38
2019-05-15T09:00:09.867Z,6260.63
2019-05-15T09:01:09.853Z,6609.38
2019-05-15T09:02:08.697Z,6828.75
2019-05-15T09:03:08.805Z,6766.88
2019-05-15T09:04:09.067Z,6721.88
2019-05-15T09:05:08.883Z,6795.00
2019-05-15T09:06:09.236Z,6783.75
2019-05-15T09:07:09.361Z,6806.25
2019-05-15T09:08:09.289Z,6918.75
2019-05-15T09:09:09.539Z,6778.13
2019-05-15T09:10:09.132Z,6609.38
2019-05-15T09:11:09.424Z,6716.25
2019-05-15T09:12:08.735Z,6693.75
2019-05-15T09:13:09.604Z,6491.25
2019-05-15T09:14:08.718Z,6558.75
2019-05-15T09:15:08.721Z,6648.75
2019-05-15T09:16:08.721Z,6806.25
2019-05-15T09:17:08.779Z,6373.13
2019-05-15T09:18:15.647Z,5866.88
2019-05-15T09:19:08.734Z,5895.00
2019-05-15T09:20:08.735Z,6170.63
2019-05-15T09:21:09.048Z,6558.75
2019-05-15T09:22:09.231Z,6862.50
2019-05-15T09:23:09.083Z,6834.38
2019-05-15T09:24:09.400Z,6553.13
2019-05-15T09:25:10.281Z,6603.75
2019-05-15T09:26:09.394Z,6648.75
2019-05-15T09:27:10.257Z,6783.75
2019-05-15T09:28:08.818Z,6913.13
2019-05-15T09:29:09.466Z,6755.63
2019-05-15T09:30:08.934Z,6603.75
2019-05-15T09:31:08.775Z,6586.88
2019-05-15T09:32:12.394Z,6676.88
2019-05-15T09:33:08.892Z,6581.25
2019-05-15T09:34:09.237Z,6553.13
2019-05-15T09:35:08.773Z,6969.38
2019-05-15T09:36:09.147Z,6935.63
2019-05-15T09:37:08.780Z,6513.75
2019-05-15T09:38:08.815Z,6508.13
2019-05-15T09:39:08.827Z,6727.50
2019-05-15T09:40:09.165Z,6896.25
2019-05-15T09:41:09.211Z,6772.50
2019-05-15T09:42:08.790Z,6378.75
2019-05-15T09:43:10.772Z,6378.75
2019-05-15T09:44:08.805Z,6519.38
2019-05-15T09:45:09.107Z,6508.13
2019-05-15T09:46:10.434Z,6525.00
2019-05-15T09:47:09.274Z,6519.38
2019-05-15T09:48:10.146Z,6536.25
2019-05-15T09:49:09.783Z,6738.75
2019-05-15T09:50:09.775Z,6631.88
2019-05-15T09:51:09.365Z,6243.75
2019-05-15T09:52:09.094Z,6530.63
2019-05-15T09:53:09.364Z,7166.25
2019-05-15T09:54:08.827Z,7183.13
2019-05-15T09:55:08.875Z,6868.13
2019-05-15T09:56:08.848Z,6721.88
2019-05-15T09:57:10.546Z,6643.13
2019-05-15T09:58:08.845Z,6474.38
2019-05-15T09:59:09.203Z,6463.13
2019-05-15T10:00:09.090Z,6373.13
2019-05-15T10:01:08.865Z,6193.13
2019-05-15T10:02:09.285Z,6086.25
2019-05-15T10:03:09.592Z,6069.38
2019-05-15T10:04:08.876Z,6148.13
2019-05-15T10:05:11.141Z,6052.50
2019-05-15T10:06:08.867Z,5928.75
2019-05-15T10:07:08.869Z,5889.38
2019-05-15T10:08:09.164Z,6030.00
2019-05-15T10:09:09.225Z,6176.25
2019-05-15T10:10:08.921Z,6271.88
2019-05-15T10:11:09.221Z,6232.50
2019-05-15T10:12:09.258Z,6142.50
2019-05-15T10:13:09.133Z,6238.13
2019-05-15T10:14:09.779Z,6525.00
2019-05-15T10:15:11.364Z,6311.25
2019-05-15T10:16:08.898Z,6170.63
2019-05-15T10:17:09.284Z,6097.50
2019-05-15T10:18:09.974Z,5985.00
2019-05-15T10:19:09.078Z,6125.63
2019-05-15T10:20:09.289Z,6181.88
2019-05-15T10:21:09.305Z,6035.63
2019-05-15T10:22:09.651Z,6249.38
2019-05-15T10:23:09.028Z,6215.63
2019-05-15T10:24:09.563Z,5782.50
2019-05-15T10:25:08.929Z,5771.25
2019-05-15T10:26:13.989Z,5731.88
2019-05-15T10:27:08.993Z,5670.00
2019-05-15T10:28:09.914Z,5771.25
2019-05-15T10:29:09.280Z,5951.25
2019-05-15T10:30:09.296Z,6086.25
2019-05-15T10:31:09.556Z,6035.63
2019-05-15T10:32:08.952Z,5996.25
2019-05-15T10:33:08.954Z,5900.63
2019-05-15T10:34:09.323Z,5979.38
2019-05-15T10:35:24.120Z,6165.00
2019-05-15T10:36:08.961Z,6136.88
2019-05-15T10:37:08.970Z,5945.63
2019-05-15T10:38:09.054Z,5821.88
2019-05-15T10:39:08.996Z,5760.00
2019-05-15T10:40:09.251Z,5737.50
2019-05-15T10:41:14.834Z,5810.63
2019-05-15T10:42:08.979Z,6198.75
2019-05-15T10:43:09.381Z,6193.13
2019-05-15T10:44:09.402Z,5990.63
2019-05-15T10:45:08.990Z,5810.63
2019-05-15T10:46:13.007Z,5821.88
2019-05-15T10:47:09.026Z,5760.00
2019-05-15T10:48:09.511Z,5816.25
2019-05-15T10:49:09.003Z,5585.63
2019-05-15T10:50:09.004Z,5405.63
2019-05-15T10:51:10.243Z,5715.00
2019-05-15T10:52:11.260Z,5782.50
2019-05-15T10:53:11.322Z,5529.38
2019-05-15T10:54:09.016Z,5608.13
2019-05-15T10:55:09.615Z,5760.00
2019-05-15T10:56:09.138Z,5720.63
2019-05-15T10:57:09.031Z,5861.25
2019-05-15T10:58:16.741Z,5844.38
2019-05-15T10:59:09.038Z,5608.13
2019-05-15T11:00:09.041Z,5518.13
2019-05-15T11:01:11.405Z,5664.38
2019-05-15T11:02:09.045Z,5743.13
2019-05-15T11:03:09.046Z,5450.63
2019-05-15T11:04:09.424Z,5051.25
2019-05-15T11:05:09.555Z,5276.25
2019-05-15T11:06:09.293Z,5310.00
2019-05-15T11:07:09.832Z,5304.38
2019-05-15T11:08:09.070Z,5619.38
2019-05-15T11:09:09.080Z,5715.00
2019-05-15T11:10:09.077Z,5653.13
2019-05-15T11:11:09.406Z,5692.50
2019-05-15T11:12:09.093Z,5703.75
2019-05-15T11:13:09.142Z,5523.75
2019-05-15T11:14:09.384Z,5613.75
2019-05-15T11:15:11.355Z,5540.63
2019-05-15T11:16:09.102Z,5574.38
2019-05-15T11:17:09.102Z,5664.38
2019-05-15T11:18:09.393Z,5529.38
2019-05-15T11:19:09.131Z,5287.50
2019-05-15T11:20:09.117Z,5208.75
2019-05-15T11:21:09.121Z,5450.63
2019-05-15T11:22:09.203Z,5535.00
2019-05-15T11:23:09.129Z,5540.63
2019-05-15T11:24:19.294Z,5540.63
2019-05-15T11:26:02.871Z,5596.88
2019-05-15T11:27:02.800Z,5467.50
2019-05-15T11:28:58.796Z,5675.63
2019-05-15T11:29:58.530Z,5585.63
2019-05-15T11:31:52.453Z,5776.88
2019-05-15T11:32:50.405Z,5265.00
2019-05-15T11:34:43.898Z,5428.13
2019-05-15T11:35:56.879Z,5540.63
2019-05-15T11:37:44.010Z,5439.38
2019-05-15T11:38:38.213Z,5338.13
2019-05-15T11:40:38.965Z,5467.50
2019-05-15T11:41:31.906Z,5484.38
2019-05-15T11:43:25.328Z,5506.88
2019-05-15T11:44:25.303Z,5445.00
2019-05-15T11:46:20.848Z,5085.00
2019-05-15T11:47:18.748Z,4860.00
2019-05-15T11:49:12.212Z,4629.38
2019-05-15T11:50:12.173Z,4972.50
2019-05-15T11:52:05.683Z,5045.63
2019-05-15T11:53:08.496Z,5023.13
2019-05-15T11:55:00.364Z,5225.63
2019-05-15T11:56:00.331Z,5231.25
2019-05-15T11:57:00.305Z,5079.38
2019-05-15T11:58:00.307Z,4983.75
2019-05-15T11:59:00.323Z,4972.50
2019-05-15T12:00:00.315Z,4736.25
2019-05-15T12:01:00.342Z,4623.75
2019-05-15T12:02:00.325Z,4736.25
2019-05-15T12:03:00.321Z,4494.38
2019-05-15T12:04:00.327Z,4696.88
2019-05-15T12:05:00.333Z,1147.50
2019-05-15T12:06:14.833Z,1788.75
2019-05-15T12:07:02.651Z,5090.63
2019-05-15T12:08:00.343Z,4815.00
2019-05-15T12:09:00.346Z,4516.88
2019-05-15T12:10:00.344Z,4539.38
2019-05-15T12:11:00.355Z,4826.25
2019-05-15T12:12:00.403Z,4803.75
2019-05-15T12:13:00.353Z,4691.25
2019-05-15T12:14:00.359Z,4680.00
2019-05-15T12:15:00.364Z,4741.88
2019-05-15T12:16:00.364Z,4933.13
2019-05-15T12:17:10.638Z,1501.88
2019-05-15T12:18:00.372Z,5175.00
2019-05-15T12:19:09.144Z,2705.63
2019-05-15T12:20:05.669Z,2536.88
2019-05-15T12:21:00.381Z,5186.25
2019-05-15T12:22:00.383Z,2311.88
2019-05-15T12:23:00.405Z,1665.00
2019-05-15T12:24:00.387Z,1648.13
2019-05-15T12:25:01.056Z,4443.75
2019-05-15T12:26:00.398Z,1158.75
2019-05-15T12:27:13.906Z,1119.38
2019-05-15T12:28:00.395Z,1895.63
2019-05-15T12:29:00.405Z,2323.13
2019-05-15T12:30:00.403Z,4325.63
2019-05-15T12:31:00.410Z,4196.25
2019-05-15T12:32:11.695Z,4235.63
2019-05-15T12:33:00.452Z,4353.75
2019-05-15T12:34:00.408Z,4511.25
2019-05-15T12:35:00.417Z,4376.25
2019-05-15T12:36:00.419Z,2086.88
2019-05-15T12:37:00.413Z,4528.13
2019-05-15T12:38:00.415Z,3470.63
2019-05-15T12:39:09.032Z,3982.50